M. Luther — WDC7372 — position and weather

sailwx.info

Track history (hours):
 
Tides and Currents Weather Stations Pressure Air Temp Water Temp Dewpoint Dewpoint Depression Visibility Wind Speed Wind Dir Waves Ship Positions

M. Luther

Owner: Salmon Bay Barge Line, Inc., Seattle, WA. More information available from US FCC via Universal Licensing System and Coast Guard Vessel Documentation Center.

Last reported at 2014-Dec-23 03:31 UTC. Time now 2014-Dec-23 03:40 UTC.
Position N 49°09' W 123°00'.

Length 28 m; draft 4.1 m.

Type: Tow > 200 m length. MMSI: 367070410.

Date/timePositionNaut miles runAvg speedWind from/ knotsBaromVisibWave heightAir tempDewpointWater temp
2014-Dec-23 03:31N 49°09' W 123°00'0 0.0
2014-Dec-23 02:28N 49°09' W 123°00'0 0.0
2014-Dec-22 23:25N 49°09' W 123°00'0 0.0
2014-Dec-22 22:22N 49°09' W 123°00'0 0.0
2014-Dec-22 21:28N 49°09' W 123°00'0 0.0
2014-Dec-22 20:31N 49°09' W 123°00'0 0.0
2014-Dec-22 19:31N 49°09' W 123°00'0 0.0
2014-Dec-22 18:28N 49°09' W 123°00'0 0.0
2014-Dec-22 17:31N 49°09' W 123°00'0 0.0
2014-Dec-22 16:31N 49°09' W 123°00'0 0.1
2014-Dec-22 15:32N 49°09' W 123°00'3 3.5
2014-Dec-22 14:33N 49°07' W 123°04'7 7.1
2014-Dec-22 13:33N 49°07' W 123°15'4 4.3
2014-Dec-22 12:33N 49°04' W 123°19'5 5.1
2014-Dec-22 11:33N 49°00' W 123°13'5 5.3
2014-Dec-22 10:33N 48°57' W 123°07'7 6.9
2014-Dec-22 09:33N 48°52' W 122°59'8 8.0
2014-Dec-22 08:33N 48°47' W 122°50'8 8.0
2014-Dec-22 07:33N 48°41' W 122°42'6 6.4
2014-Dec-22 06:33N 48°35' W 122°45'5 5.1
2014-Dec-22 05:33N 48°30' W 122°44'4 4.0
2014-Dec-22 04:33N 48°26' W 122°44'5 5.1
2014-Dec-22 03:33N 48°21' W 122°45'7 6.8
2014-Dec-22 02:30N 48°14' W 122°48'1110.5
2014-Dec-22 01:29N 48°06' W 122°38'9 9.3
2014-Dec-22 00:33N 47°58' W 122°33'8 7.8
2014-Dec-21 23:33N 47°51' W 122°27'8 7.7
2014-Dec-21 22:33N 47°43' W 122°26'7 6.9
2014-Dec-21 21:33N 47°37' W 122°24'4 3.7
2014-Dec-21 20:33N 47°34' W 122°21'0 0.2
2014-Dec-21 19:28N 47°33' W 122°21'0 0.0
2014-Dec-21 18:10N 47°33' W 122°21'0 0.0
2014-Dec-21 17:31N 47°33' W 122°21'0 0.0
2014-Dec-21 16:31N 47°33' W 122°21'0 0.0
2014-Dec-21 15:31N 47°33' W 122°21'0 0.0
2014-Dec-21 14:31N 47°33' W 122°21'0 0.0
2014-Dec-21 13:28N 47°33' W 122°21'0 0.0
2014-Dec-21 12:07N 47°33' W 122°21'0 0.1
2014-Dec-21 11:28N 47°33' W 122°21'0 0.0
2014-Dec-21 10:31N 47°33' W 122°21'0 0.0
2014-Dec-21 09:31N 47°33' W 122°21'0 0.0
2014-Dec-21 08:28N 47°33' W 122°21'0 0.0
2014-Dec-21 07:31N 47°33' W 122°21'0 0.0
2014-Dec-21 06:28N 47°33' W 122°21'0 0.0
2014-Dec-21 05:25N 47°33' W 122°21'0 0.0
2014-Dec-21 04:22N 47°33' W 122°21'0 0.0
2014-Dec-21 03:19N 47°33' W 122°21'0 0.1
2014-Dec-21 02:31N 47°33' W 122°21'0 0.0
2014-Dec-21 01:31N 47°33' W 122°21'0 0.0
2014-Dec-21 00:28N 47°33' W 122°21'0 0.0
2014-Dec-20 23:10N 47°33' W 122°21'0 0.0
2014-Dec-20 18:19N 47°33' W 122°21'0 0.0
2014-Dec-20 17:31N 47°33' W 122°21'0 0.0
2014-Dec-20 16:28N 47°33' W 122°21'0 0.0
2014-Dec-20 15:31N 47°33' W 122°21'0 0.0
2014-Dec-20 14:31N 47°33' W 122°21'0 0.0
2014-Dec-20 13:31N 47°33' W 122°21'0 0.0
2014-Dec-20 12:31N 47°33' W 122°21'0 0.0
2014-Dec-20 11:31N 47°33' W 122°21'0 0.0
2014-Dec-20 10:31N 47°33' W 122°21'0 0.0
2014-Dec-20 09:31N 47°33' W 122°21'0 0.0
2014-Dec-20 08:34N 47°33' W 122°21'0 0.0
2014-Dec-20 07:33N 47°33' W 122°21'0 0.0
2014-Dec-20 06:33N 47°33' W 122°21'0 0.0
2014-Dec-20 04:33N 47°33' W 122°21'0 0.0
2014-Dec-20 03:33N 47°33' W 122°21'0 0.0
2014-Dec-20 02:33N 47°33' W 122°21'0 0.0
2014-Dec-20 01:30N 47°33' W 122°21'0 0.0
2014-Dec-20 00:33N 47°33' W 122°21'0 0.0
2014-Dec-19 23:33N 47°33' W 122°21'0 0.0
2014-Dec-19 22:33N 47°33' W 122°21'0 0.0
2014-Dec-19 21:30N 47°33' W 122°21'0 0.0
2014-Dec-19 20:30N 47°33' W 122°21'0 0.0
2014-Dec-19 19:27N 47°33' W 122°21'0 0.0
2014-Dec-19 18:24N 47°33' W 122°21'0 0.0
2014-Dec-19 17:33N 47°33' W 122°21'0 0.0
2014-Dec-19 16:33N 47°33' W 122°21'0 0.0
2014-Dec-19 15:30N 47°33' W 122°21'0 0.0
2014-Dec-19 14:27N 47°33' W 122°21'0 0.0
2014-Dec-19 13:12N 47°33' W 122°21'0 0.0
2014-Dec-19 12:09N 47°33' W 122°21'0 0.1
2014-Dec-19 11:21N 47°33' W 122°21'0 0.0
2014-Dec-19 09:33N 47°33' W 122°21'0 0.0
2014-Dec-19 08:30N 47°33' W 122°21'0 0.0
2014-Dec-19 05:12N 47°33' W 122°21'0 0.1
2014-Dec-19 04:33N 47°33' W 122°21'0 0.0
2014-Dec-19 03:33N 47°33' W 122°21'0 0.0
2014-Dec-19 02:30N 47°33' W 122°21'0 0.0
2014-Dec-19 01:33N 47°33' W 122°21'0 0.0
2014-Dec-19 00:30N 47°33' W 122°21'0 0.0
2014-Dec-18 23:30N 47°33' W 122°21'0 0.0
2014-Dec-18 22:27N 47°33' W 122°21'0 0.0
2014-Dec-18 21:33N 47°33' W 122°21'0 0.0
2014-Dec-18 20:32N 47°33' W 122°21'0 0.0
2014-Dec-18 19:05N 47°33' W 122°21'0 0.0
2014-Dec-18 16:08N 47°33' W 122°21'0 0.0
2014-Dec-18 15:27N 47°33' W 122°21'0 0.0
2014-Dec-18 14:32N 47°33' W 122°21'0 0.0
2014-Dec-18 13:32N 47°33' W 122°21'0 0.0
2014-Dec-18 12:32N 47°33' W 122°21'0 0.0
2014-Dec-18 11:32N 47°33' W 122°21'0 0.0
2014-Dec-18 10:32N 47°33' W 122°21'0 0.0
2014-Dec-18 09:26N 47°33' W 122°21'0 0.0
2014-Dec-18 08:32N 47°33' W 122°21'0 0.0
2014-Dec-18 07:32N 47°33' W 122°21'0 0.0
2014-Dec-18 06:32N 47°33' W 122°21'0 0.0
2014-Dec-18 05:32N 47°33' W 122°21'0 0.0
2014-Dec-18 04:32N 47°33' W 122°21'0 0.0
2014-Dec-18 03:32N 47°33' W 122°21'0 0.0
2014-Dec-18 02:32N 47°33' W 122°21'0 0.0
2014-Dec-18 01:32N 47°33' W 122°21'0 0.0
2014-Dec-18 00:32N 47°33' W 122°21'0 0.0
2014-Dec-17 23:32N 47°33' W 122°21'0 0.0
2014-Dec-17 22:32N 47°33' W 122°21'0 0.0
2014-Dec-17 21:26N 47°33' W 122°21'0 0.0
2014-Dec-17 20:32N 47°33' W 122°21'0 0.0
2014-Dec-17 19:32N 47°33' W 122°21'0 0.0
2014-Dec-17 16:17N 47°33' W 122°21'0 0.0
2014-Dec-17 15:29N 47°33' W 122°21'0 0.0
2014-Dec-17 14:11N 47°33' W 122°21'0 0.1
2014-Dec-17 13:26N 47°33' W 122°21'0 0.0
2014-Dec-17 12:32N 47°33' W 122°21'0 0.0
2014-Dec-17 11:32N 47°33' W 122°21'0 0.0
2014-Dec-17 10:29N 47°33' W 122°21'0 0.0
2014-Dec-17 09:25N 47°33' W 122°21'0 0.0
2014-Dec-17 08:22N 47°33' W 122°21'0 0.1
2014-Dec-17 07:31N 47°33' W 122°21'0 0.0
2014-Dec-17 05:31N 47°33' W 122°21'0 0.0
2014-Dec-17 01:20N 47°33' W 122°21'0 0.0
2014-Dec-17 00:31N 47°33' W 122°21'0 0.0
2014-Dec-16 23:28N 47°33' W 122°21'0 0.0
2014-Dec-16 22:31N 47°33' W 122°21'0 0.0
2014-Dec-16 21:31N 47°33' W 122°21'0 0.0
2014-Dec-16 20:31N 47°33' W 122°21'0 0.0
2014-Dec-16 19:31N 47°33' W 122°21'0 0.0
2014-Dec-16 18:31N 47°33' W 122°21'0 0.0
2014-Dec-16 17:31N 47°33' W 122°21'0 0.0
2014-Dec-16 16:31N 47°33' W 122°21'0 0.0
2014-Dec-16 15:25N 47°33' W 122°21'0 0.0
2014-Dec-16 14:19N 47°33' W 122°21'0 0.0
2014-Dec-16 13:31N 47°33' W 122°21'0 0.0
2014-Dec-16 12:31N 47°33' W 122°21'0 0.0
2014-Dec-16 11:25N 47°33' W 122°21'0 0.0
2014-Dec-16 10:31N 47°33' W 122°21'0 0.0
2014-Dec-16 09:31N 47°33' W 122°21'0 0.0
2014-Dec-16 08:31N 47°33' W 122°21'0 0.0
2014-Dec-16 07:22N 47°33' W 122°21'0 0.0
2014-Dec-16 06:31N 47°33' W 122°21'0 0.0
2014-Dec-16 05:22N 47°33' W 122°21'0 0.0
2014-Dec-16 01:10N 47°33' W 122°21'0 0.0
2014-Dec-15 23:34N 47°33' W 122°21'0 0.0
2014-Dec-15 22:34N 47°33' W 122°21'0 0.0
2014-Dec-15 21:33N 47°33' W 122°21'0 0.0
2014-Dec-15 20:30N 47°33' W 122°21'0 0.0
2014-Dec-15 19:30N 47°33' W 122°21'0 0.0
2014-Dec-15 18:27N 47°33' W 122°21'0 0.0
2014-Dec-15 17:33N 47°33' W 122°21'0 0.0
2014-Dec-15 16:27N 47°33' W 122°21'0 0.0
2014-Dec-15 15:24N 47°33' W 122°21'0 0.0
2014-Dec-15 14:24N 47°33' W 122°21'0 0.0
2014-Dec-15 13:33N 47°33' W 122°21'0 0.0
2014-Dec-15 12:30N 47°33' W 122°21'0 0.0
2014-Dec-15 11:18N 47°33' W 122°21'0 0.0
2014-Dec-15 10:30N 47°33' W 122°21'0 0.0
2014-Dec-15 09:27N 47°33' W 122°21'0 0.0
2014-Dec-15 08:15N 47°33' W 122°21'0 0.0
2014-Dec-15 06:18N 47°33' W 122°21'0 0.0
2014-Dec-15 00:33N 47°33' W 122°21'0 0.0
2014-Dec-14 23:15N 47°33' W 122°21'0 0.0
2014-Dec-14 22:33N 47°33' W 122°21'0 0.0
2014-Dec-14 21:33N 47°33' W 122°21'0 0.0
2014-Dec-14 20:33N 47°33' W 122°21'0 0.0
2014-Dec-14 19:33N 47°33' W 122°21'0 0.0
2014-Dec-14 18:30N 47°33' W 122°21'0 0.0
2014-Dec-14 17:33N 47°33' W 122°21'0 0.0
2014-Dec-14 16:33N 47°33' W 122°21'0 0.0
2014-Dec-14 15:33N 47°33' W 122°21'0 0.0
2014-Dec-14 13:09N 47°33' W 122°21'0 0.1
2014-Dec-14 12:27N 47°33' W 122°21'0 0.0
2014-Dec-14 11:26N 47°33' W 122°21'0 0.0
2014-Dec-14 10:29N 47°33' W 122°21'0 0.0
2014-Dec-14 09:32N 47°33' W 122°21'0 0.0
2014-Dec-14 07:29N 47°33' W 122°21'0 0.0
2014-Dec-14 06:23N 47°33' W 122°21'0 0.0
2014-Dec-14 05:32N 47°33' W 122°21'0 0.0
2014-Dec-14 04:32N 47°33' W 122°21'0 0.0
2014-Dec-14 03:32N 47°33' W 122°21'0 0.0
2014-Dec-14 02:32N 47°33' W 122°21'0 0.0
2014-Dec-14 00:14N 47°33' W 122°21'0 0.0
2014-Dec-13 23:29N 47°33' W 122°21'0 0.0
2014-Dec-13 22:23N 47°33' W 122°21'0 0.0
2014-Dec-13 21:32N 47°33' W 122°21'0 0.0
2014-Dec-13 20:32N 47°33' W 122°21'0 0.0
2014-Dec-13 18:17N 47°33' W 122°21'0 0.0
2014-Dec-13 17:29N 47°33' W 122°21'0 0.0
2014-Dec-13 16:26N 47°33' W 122°21'0 0.0
2014-Dec-13 15:23N 47°33' W 122°21'0 0.0
2014-Dec-13 14:32N 47°33' W 122°21'0 0.0
2014-Dec-13 13:32N 47°33' W 122°21'0 0.0
2014-Dec-13 12:29N 47°33' W 122°21'0 0.0
2014-Dec-13 10:08N 47°33' W 122°21'0 0.1
2014-Dec-13 09:23N 47°33' W 122°21'0 0.0
2014-Dec-13 08:20N 47°33' W 122°21'0 0.0
2014-Dec-13 07:17N 47°33' W 122°21'  
Track history (hours):
 
Tides and Currents Weather Stations Pressure Air Temp Water Temp Dewpoint Dewpoint Depression Visibility Wind Speed Wind Dir Waves Ship Positions

M. Luther

Owner: Salmon Bay Barge Line, Inc., Seattle, WA. More information available from US FCC via Universal Licensing System and Coast Guard Vessel Documentation Center.

Last reported at 2014-Dec-23 03:31 UTC. Time now 2014-Dec-23 03:40 UTC.
Position N 49°09' W 123°00'.

Length 28 m; draft 4.1 m.

Type: Tow > 200 m length. MMSI: 367070410.

Date/timePositionNaut miles runAvg speedWind from/ knotsBaromVisibWave heightAir tempDewpointWater temp
2014-Dec-23 03:31N 49°09' W 123°00'0 0.0
2014-Dec-23 02:28N 49°09' W 123°00'0 0.0
2014-Dec-22 23:25N 49°09' W 123°00'0 0.0
2014-Dec-22 22:22N 49°09' W 123°00'0 0.0
2014-Dec-22 21:28N 49°09' W 123°00'0 0.0
2014-Dec-22 20:31N 49°09' W 123°00'0 0.0
2014-Dec-22 19:31N 49°09' W 123°00'0 0.0
2014-Dec-22 18:28N 49°09' W 123°00'0 0.0
2014-Dec-22 17:31N 49°09' W 123°00'0 0.0
2014-Dec-22 16:31N 49°09' W 123°00'0 0.1
2014-Dec-22 15:32N 49°09' W 123°00'3 3.5
2014-Dec-22 14:33N 49°07' W 123°04'7 7.1
2014-Dec-22 13:33N 49°07' W 123°15'4 4.3
2014-Dec-22 12:33N 49°04' W 123°19'5 5.1
2014-Dec-22 11:33N 49°00' W 123°13'5 5.3
2014-Dec-22 10:33N 48°57' W 123°07'7 6.9
2014-Dec-22 09:33N 48°52' W 122°59'8 8.0
2014-Dec-22 08:33N 48°47' W 122°50'8 8.0
2014-Dec-22 07:33N 48°41' W 122°42'6 6.4
2014-Dec-22 06:33N 48°35' W 122°45'5 5.1
2014-Dec-22 05:33N 48°30' W 122°44'4 4.0
2014-Dec-22 04:33N 48°26' W 122°44'5 5.1
2014-Dec-22 03:33N 48°21' W 122°45'7 6.8
2014-Dec-22 02:30N 48°14' W 122°48'1110.5
2014-Dec-22 01:29N 48°06' W 122°38'9 9.3
2014-Dec-22 00:33N 47°58' W 122°33'8 7.8
2014-Dec-21 23:33N 47°51' W 122°27'8 7.7
2014-Dec-21 22:33N 47°43' W 122°26'7 6.9
2014-Dec-21 21:33N 47°37' W 122°24'4 3.7
2014-Dec-21 20:33N 47°34' W 122°21'0 0.2
2014-Dec-21 19:28N 47°33' W 122°21'0 0.0
2014-Dec-21 18:10N 47°33' W 122°21'0 0.0
2014-Dec-21 17:31N 47°33' W 122°21'0 0.0
2014-Dec-21 16:31N 47°33' W 122°21'0 0.0
2014-Dec-21 15:31N 47°33' W 122°21'0 0.0
2014-Dec-21 14:31N 47°33' W 122°21'0 0.0
2014-Dec-21 13:28N 47°33' W 122°21'0 0.0
2014-Dec-21 12:07N 47°33' W 122°21'0 0.1
2014-Dec-21 11:28N 47°33' W 122°21'0 0.0
2014-Dec-21 10:31N 47°33' W 122°21'0 0.0
2014-Dec-21 09:31N 47°33' W 122°21'0 0.0
2014-Dec-21 08:28N 47°33' W 122°21'0 0.0
2014-Dec-21 07:31N 47°33' W 122°21'0 0.0
2014-Dec-21 06:28N 47°33' W 122°21'0 0.0
2014-Dec-21 05:25N 47°33' W 122°21'0 0.0
2014-Dec-21 04:22N 47°33' W 122°21'0 0.0
2014-Dec-21 03:19N 47°33' W 122°21'0 0.1
2014-Dec-21 02:31N 47°33' W 122°21'0 0.0
2014-Dec-21 01:31N 47°33' W 122°21'0 0.0
2014-Dec-21 00:28N 47°33' W 122°21'0 0.0
2014-Dec-20 23:10N 47°33' W 122°21'0 0.0
2014-Dec-20 18:19N 47°33' W 122°21'0 0.0
2014-Dec-20 17:31N 47°33' W 122°21'0 0.0
2014-Dec-20 16:28N 47°33' W 122°21'0 0.0
2014-Dec-20 15:31N 47°33' W 122°21'0 0.0
2014-Dec-20 14:31N 47°33' W 122°21'0 0.0
2014-Dec-20 13:31N 47°33' W 122°21'0 0.0
2014-Dec-20 12:31N 47°33' W 122°21'0 0.0
2014-Dec-20 11:31N 47°33' W 122°21'0 0.0
2014-Dec-20 10:31N 47°33' W 122°21'0 0.0
2014-Dec-20 09:31N 47°33' W 122°21'0 0.0
2014-Dec-20 08:34N 47°33' W 122°21'0 0.0
2014-Dec-20 07:33N 47°33' W 122°21'0 0.0
2014-Dec-20 06:33N 47°33' W 122°21'0 0.0
2014-Dec-20 04:33N 47°33' W 122°21'0 0.0
2014-Dec-20 03:33N 47°33' W 122°21'0 0.0
2014-Dec-20 02:33N 47°33' W 122°21'0 0.0
2014-Dec-20 01:30N 47°33' W 122°21'0 0.0
2014-Dec-20 00:33N 47°33' W 122°21'0 0.0
2014-Dec-19 23:33N 47°33' W 122°21'0 0.0
2014-Dec-19 22:33N 47°33' W 122°21'0 0.0
2014-Dec-19 21:30N 47°33' W 122°21'0 0.0
2014-Dec-19 20:30N 47°33' W 122°21'0 0.0
2014-Dec-19 19:27N 47°33' W 122°21'0 0.0
2014-Dec-19 18:24N 47°33' W 122°21'0 0.0
2014-Dec-19 17:33N 47°33' W 122°21'0 0.0
2014-Dec-19 16:33N 47°33' W 122°21'0 0.0
2014-Dec-19 15:30N 47°33' W 122°21'0 0.0
2014-Dec-19 14:27N 47°33' W 122°21'0 0.0
2014-Dec-19 13:12N 47°33' W 122°21'0 0.0
2014-Dec-19 12:09N 47°33' W 122°21'0 0.1
2014-Dec-19 11:21N 47°33' W 122°21'0 0.0
2014-Dec-19 09:33N 47°33' W 122°21'0 0.0
2014-Dec-19 08:30N 47°33' W 122°21'0 0.0
2014-Dec-19 05:12N 47°33' W 122°21'0 0.1
2014-Dec-19 04:33N 47°33' W 122°21'0 0.0
2014-Dec-19 03:33N 47°33' W 122°21'0 0.0
2014-Dec-19 02:30N 47°33' W 122°21'0 0.0
2014-Dec-19 01:33N 47°33' W 122°21'0 0.0
2014-Dec-19 00:30N 47°33' W 122°21'0 0.0
2014-Dec-18 23:30N 47°33' W 122°21'0 0.0
2014-Dec-18 22:27N 47°33' W 122°21'0 0.0
2014-Dec-18 21:33N 47°33' W 122°21'0 0.0
2014-Dec-18 20:32N 47°33' W 122°21'0 0.0
2014-Dec-18 19:05N 47°33' W 122°21'0 0.0
2014-Dec-18 16:08N 47°33' W 122°21'0 0.0
2014-Dec-18 15:27N 47°33' W 122°21'0 0.0
2014-Dec-18 14:32N 47°33' W 122°21'0 0.0
2014-Dec-18 13:32N 47°33' W 122°21'0 0.0
2014-Dec-18 12:32N 47°33' W 122°21'0 0.0
2014-Dec-18 11:32N 47°33' W 122°21'0 0.0
2014-Dec-18 10:32N 47°33' W 122°21'0 0.0
2014-Dec-18 09:26N 47°33' W 122°21'0 0.0
2014-Dec-18 08:32N 47°33' W 122°21'0 0.0
2014-Dec-18 07:32N 47°33' W 122°21'0 0.0
2014-Dec-18 06:32N 47°33' W 122°21'0 0.0
2014-Dec-18 05:32N 47°33' W 122°21'0 0.0
2014-Dec-18 04:32N 47°33' W 122°21'0 0.0
2014-Dec-18 03:32N 47°33' W 122°21'0 0.0
2014-Dec-18 02:32N 47°33' W 122°21'0 0.0
2014-Dec-18 01:32N 47°33' W 122°21'0 0.0
2014-Dec-18 00:32N 47°33' W 122°21'0 0.0
2014-Dec-17 23:32N 47°33' W 122°21'0 0.0
2014-Dec-17 22:32N 47°33' W 122°21'0 0.0
2014-Dec-17 21:26N 47°33' W 122°21'0 0.0
2014-Dec-17 20:32N 47°33' W 122°21'0 0.0
2014-Dec-17 19:32N 47°33' W 122°21'0 0.0
2014-Dec-17 16:17N 47°33' W 122°21'0 0.0
2014-Dec-17 15:29N 47°33' W 122°21'0 0.0
2014-Dec-17 14:11N 47°33' W 122°21'0 0.1
2014-Dec-17 13:26N 47°33' W 122°21'0 0.0
2014-Dec-17 12:32N 47°33' W 122°21'0 0.0
2014-Dec-17 11:32N 47°33' W 122°21'0 0.0
2014-Dec-17 10:29N 47°33' W 122°21'0 0.0
2014-Dec-17 09:25N 47°33' W 122°21'0 0.0
2014-Dec-17 08:22N 47°33' W 122°21'0 0.1
2014-Dec-17 07:31N 47°33' W 122°21'0 0.0
2014-Dec-17 05:31N 47°33' W 122°21'0 0.0
2014-Dec-17 01:20N 47°33' W 122°21'0 0.0
2014-Dec-17 00:31N 47°33' W 122°21'0 0.0
2014-Dec-16 23:28N 47°33' W 122°21'0 0.0
2014-Dec-16 22:31N 47°33' W 122°21'0 0.0
2014-Dec-16 21:31N 47°33' W 122°21'0 0.0
2014-Dec-16 20:31N 47°33' W 122°21'0 0.0
2014-Dec-16 19:31N 47°33' W 122°21'0 0.0
2014-Dec-16 18:31N 47°33' W 122°21'0 0.0
2014-Dec-16 17:31N 47°33' W 122°21'0 0.0
2014-Dec-16 16:31N 47°33' W 122°21'0 0.0
2014-Dec-16 15:25N 47°33' W 122°21'0 0.0
2014-Dec-16 14:19N 47°33' W 122°21'0 0.0
2014-Dec-16 13:31N 47°33' W 122°21'0 0.0
2014-Dec-16 12:31N 47°33' W 122°21'0 0.0
2014-Dec-16 11:25N 47°33' W 122°21'0 0.0
2014-Dec-16 10:31N 47°33' W 122°21'0 0.0
2014-Dec-16 09:31N 47°33' W 122°21'0 0.0
2014-Dec-16 08:31N 47°33' W 122°21'0 0.0
2014-Dec-16 07:22N 47°33' W 122°21'0 0.0
2014-Dec-16 06:31N 47°33' W 122°21'0 0.0
2014-Dec-16 05:22N 47°33' W 122°21'0 0.0
2014-Dec-16 01:10N 47°33' W 122°21'0 0.0
2014-Dec-15 23:34N 47°33' W 122°21'0 0.0
2014-Dec-15 22:34N 47°33' W 122°21'0 0.0
2014-Dec-15 21:33N 47°33' W 122°21'0 0.0
2014-Dec-15 20:30N 47°33' W 122°21'0 0.0
2014-Dec-15 19:30N 47°33' W 122°21'0 0.0
2014-Dec-15 18:27N 47°33' W 122°21'0 0.0
2014-Dec-15 17:33N 47°33' W 122°21'0 0.0
2014-Dec-15 16:27N 47°33' W 122°21'0 0.0
2014-Dec-15 15:24N 47°33' W 122°21'0 0.0
2014-Dec-15 14:24N 47°33' W 122°21'0 0.0
2014-Dec-15 13:33N 47°33' W 122°21'0 0.0
2014-Dec-15 12:30N 47°33' W 122°21'0 0.0
2014-Dec-15 11:18N 47°33' W 122°21'0 0.0
2014-Dec-15 10:30N 47°33' W 122°21'0 0.0
2014-Dec-15 09:27N 47°33' W 122°21'0 0.0
2014-Dec-15 08:15N 47°33' W 122°21'0 0.0
2014-Dec-15 06:18N 47°33' W 122°21'0 0.0
2014-Dec-15 00:33N 47°33' W 122°21'0 0.0
2014-Dec-14 23:15N 47°33' W 122°21'0 0.0
2014-Dec-14 22:33N 47°33' W 122°21'0 0.0
2014-Dec-14 21:33N 47°33' W 122°21'0 0.0
2014-Dec-14 20:33N 47°33' W 122°21'0 0.0
2014-Dec-14 19:33N 47°33' W 122°21'0 0.0
2014-Dec-14 18:30N 47°33' W 122°21'0 0.0
2014-Dec-14 17:33N 47°33' W 122°21'0 0.0
2014-Dec-14 16:33N 47°33' W 122°21'0 0.0
2014-Dec-14 15:33N 47°33' W 122°21'0 0.0
2014-Dec-14 13:09N 47°33' W 122°21'0 0.1
2014-Dec-14 12:27N 47°33' W 122°21'0 0.0
2014-Dec-14 11:26N 47°33' W 122°21'0 0.0
2014-Dec-14 10:29N 47°33' W 122°21'0 0.0
2014-Dec-14 09:32N 47°33' W 122°21'0 0.0
2014-Dec-14 07:29N 47°33' W 122°21'0 0.0
2014-Dec-14 06:23N 47°33' W 122°21'0 0.0
2014-Dec-14 05:32N 47°33' W 122°21'0 0.0
2014-Dec-14 04:32N 47°33' W 122°21'0 0.0
2014-Dec-14 03:32N 47°33' W 122°21'0 0.0
2014-Dec-14 02:32N 47°33' W 122°21'0 0.0
2014-Dec-14 00:14N 47°33' W 122°21'0 0.0
2014-Dec-13 23:29N 47°33' W 122°21'0 0.0
2014-Dec-13 22:23N 47°33' W 122°21'0 0.0
2014-Dec-13 21:32N 47°33' W 122°21'0 0.0
2014-Dec-13 20:32N 47°33' W 122°21'0 0.0
2014-Dec-13 18:17N 47°33' W 122°21'0 0.0
2014-Dec-13 17:29N 47°33' W 122°21'0 0.0
2014-Dec-13 16:26N 47°33' W 122°21'0 0.0
2014-Dec-13 15:23N 47°33' W 122°21'0 0.0
2014-Dec-13 14:32N 47°33' W 122°21'0 0.0
2014-Dec-13 13:32N 47°33' W 122°21'0 0.0
2014-Dec-13 12:29N 47°33' W 122°21'0 0.0
2014-Dec-13 10:08N 47°33' W 122°21'0 0.1
2014-Dec-13 09:23N 47°33' W 122°21'0 0.0
2014-Dec-13 08:20N 47°33' W 122°21'0 0.0
2014-Dec-13 07:17N 47°33' W 122°21'  

Dump ship's entire track history